Terminal Aerodrome Forecast
Issued by NWS

Home | Current Version | Previous Version | Graphics & Text | Print | Product List | Glossary On
Versions: 1 2 3 4 5 6 7 8 9 10 11 12 13 14 15 16 17 18 19 20 21 22 23 24 25 26 27
000
FTUS42 KMHX 022323
TAFPGV
TAF
KPGV 022323Z 0300/0324 04005KT P6SM FEW050 SCT100
     FM030900 04005KT P6SM BKN050
     FM031500 10007KT P6SM SCT025 OVC035
     FM032100 12006KT P6SM OVC025
      AMD LTD TO CLD VIS AND WIND=

USA.gov is the U.S. government's official web portal to all federal, state and local government web resources and services.